Huvudsida
METAR-TAF:

METAR-TAF

Flygplatser :

Trieste, Italien

latitud: 45-39N, longitud: 013-45E, höjd: 8 m

Aktuellt väderrapport

Denna rapport gjordes för 1 timme och 7 minuter sedan, klockan 16:55 UTC
Vind 2 kt från väst/nordväst
Temperatur 31°C
Fuktighet 59%
Tryck 1017 hPa
Sikt 10 km eller mer
Inga moln under 1 500 m eller inga cumulonimbus

METAR: LIVT 231655Z 30002KT CAVOK 31/22 Q1017 RMK SKC QUK 0 QUL 0 VIS MAR 20 KM VIS MIN 9999

Tid: 20:02 (18:02 UTC)


TAF: saknas

Aktuella väderrapporter och prognoser från 4000 flygplatser (METAR- och TAF-rapporter).

De tillgängliga stationerna syns som gula och röda prickar på kartan.

För musen över prickarna för att se namnen på stationerna.

Klicka sedan för att få väderrapporter och prognoser.

För att ändra kartan: Klicka på de gröna knapparna med ett svart kors på för att zooma in; den gröna knappen med ett streck på för att zooma ut; eller på de gröna pilarna för angränsande kartor.


METAR-TAF: